This is the latest recevied weather packets stored in our database for station/object W2GRK-15. If no packets are shown the sender has not sent any weather packets the latest 10 day(s).
| Time | Temp. | Humidity | Pressure | Rain* | Wind** | Luminosity | Snow |
|---|---|---|---|---|---|---|---|
| 1777907849 | 19.44° C | 39% | 1013.5 hPa | 0 mm | - | 747 W/m² | - |
| 1777907785 | 19.44° C | 40% | 1013.4 hPa | 0 mm | - | 747 W/m² | - |
| 1777907720 | 19.44° C | 40% | 1013.5 hPa | 0 mm | - | 746 W/m² | - |
| 1777907498 | 20° C | 40% | 1013.3 hPa | 0 mm | - | 733 W/m² | - |
| 1777907366 | 19.44° C | 42% | 1013.5 hPa | 0 mm | - | 728 W/m² | - |
| 1777907060 | 18.33° C | 40% | 1013.5 hPa | 0 mm | - | 718 W/m² | - |
| 1777906221 | 18.89° C | 39% | 1013.5 hPa | 0 mm | - | 689 W/m² | - |
| 1777906156 | 18.89° C | 41% | 1013.7 hPa | 0 mm | - | 690 W/m² | - |
| 1777905931 | 18.33° C | 42% | 1013.6 hPa | 0 mm | - | 680 W/m² | - |
| 1777904240 | 17.78° C | 47% | 1013.8 hPa | 0 mm | - | 628 W/m² | - |
| 1777903338 | 16.67° C | 51% | 1013.8 hPa | 0 mm | - | 551 W/m² | - |
| 1777903226 | 16.67° C | 50% | 1013.9 hPa | 0 mm | - | 587 W/m² | - |
| 1777902520 | 16.67° C | 52% | 1014 hPa | 0 mm | - | 553 W/m² | - |
| 1777902387 | 16.67° C | 50% | 1014.2 hPa | 0 mm | - | 545 W/m² | - |
| 1777902323 | 16.11° C | 51% | 1014.1 hPa | 0 mm | - | 542 W/m² | - |
| 1777901989 | 16.11° C | 50% | 1014.2 hPa | 0 mm | - | 520 W/m² | - |
| 1777901357 | 16.11° C | 51% | 1014.3 hPa | 0 mm | - | 465 W/m² | - |
| 1777900938 | 15.56° C | 52% | 1014.5 hPa | 0 mm | - | 462 W/m² | - |
| 1777900826 | 15.56° C | 53% | 1014.4 hPa | 0 mm | - | 455 W/m² | - |
| 1777899747 | 15° C | 55% | 1014.6 hPa | 0 mm | - | 393 W/m² | - |
| 1777899569 | 15° C | 56% | 1014.5 hPa | 0 mm | - | 382 W/m² | - |
| 1777899440 | 15° C | 56% | 1014.6 hPa | 0 mm | - | 378 W/m² | - |
| 1777898909 | 14.44° C | 59% | 1014.6 hPa | 0 mm | - | 343 W/m² | - |
| 1777898667 | 14.44° C | 59% | 1014.9 hPa | 0 mm | - | 328 W/m² | - |
| 1777898204 | 13.89° C | 60% | 1014.7 hPa | 0 mm | - | 294 W/m² | - |
* Rain latest hour (hover to see other rain measurements)
** Current wind speed in m/s (hover to see current wind gust speed)